Time;durP1;ratioP1;P1;durP2;ratioP2;P2;SDS_P1;SDS_P2;PMS_P1;PMS_P2;Temp;Humidity;BMP_temperature;BMP_pressure;BME280_temperature;BME280_humidity;BME280_pressure;Samples;Min_cycle;Max_cycle;Signal;HPM_P1;HPM_P2
2022/05/27 00:01:06;;;;;;;9.87;9.03;;;;;;;14.92;97.50;100330.09;5054500;28;20269;-73
2022/05/27 00:03:33;;;;;;;10.77;9.93;;;;;;;14.96;97.60;100343.97;5055320;28;20240;-73
2022/05/27 00:05:59;;;;;;;10.47;9.77;;;;;;;14.94;97.44;100333.50;5054971;28;20669;-72
2022/05/27 00:08:26;;;;;;;9.83;9.03;;;;;;;15.03;96.73;100354.19;5055154;28;20225;-73
2022/05/27 00:10:53;;;;;;;11.33;10.33;;;;;;;14.91;96.44;100369.59;5054738;28;20205;-73
2022/05/27 00:13:19;;;;;;;10.93;9.93;;;;;;;15.04;96.01;100374.31;5054600;28;20711;-73
2022/05/27 00:15:47;;;;;;;10.90;9.83;;;;;;;14.97;96.51;100358.84;5054489;28;20214;-72
2022/05/27 00:18:13;;;;;;;10.13;9.33;;;;;;;15.09;95.41;100369.72;5054726;28;20720;-72
2022/05/27 00:20:40;;;;;;;8.97;8.27;;;;;;;15.23;94.54;100392.00;5054755;28;20221;-72
2022/05/27 00:23:07;;;;;;;9.60;8.93;;;;;;;15.20;94.33;100395.63;5054572;28;20715;-72
2022/05/27 00:25:33;;;;;;;9.40;8.73;;;;;;;15.04;94.52;100390.09;5054701;28;20209;-72
2022/05/27 00:28:00;;;;;;;9.60;8.90;;;;;;;15.03;94.82;100377.00;5054360;28;20221;-72
2022/05/27 00:30:28;;;;;;;9.50;8.80;;;;;;;15.05;94.99;100378.66;5053932;28;20753;-72
2022/05/27 00:32:56;;;;;;;10.50;9.73;;;;;;;14.96;95.05;100367.63;5054512;28;20259;-73
2022/05/27 00:35:23;;;;;;;9.53;8.67;;;;;;;15.06;94.96;100367.22;5054604;28;20296;-74
2022/05/27 00:37:50;;;;;;;9.87;9.10;;;;;;;14.92;95.18;100366.88;5054596;28;20300;-73
2022/05/27 00:40:17;;;;;;;9.23;8.57;;;;;;;14.97;95.49;100346.53;5053992;28;20197;-73
2022/05/27 00:42:46;;;;;;;10.17;9.50;;;;;;;14.92;96.00;100352.91;5053928;28;20283;-73
2022/05/27 00:45:16;;;;;;;9.53;8.67;;;;;;;15.03;95.33;100350.72;5053968;28;20733;-74
2022/05/27 00:47:44;;;;;;;9.93;9.33;;;;;;;15.09;94.90;100369.72;5054029;28;20786;-73
2022/05/27 00:50:16;;;;;;;11.23;9.93;;;;;;;15.07;94.74;100368.94;5054142;28;20231;-73
2022/05/27 00:52:44;;;;;;;10.33;9.43;;;;;;;15.08;94.10;100373.28;5054149;28;20267;-73
2022/05/27 00:55:14;;;;;;;10.57;9.57;;;;;;;15.08;94.26;100377.66;5054015;28;20206;-73
2022/05/27 00:57:44;;;;;;;11.10;10.13;;;;;;;15.07;nan;100384.69;5054265;28;20201;-73
2022/05/27 01:00:14;;;;;;;11.23;10.47;;;;;;;14.98;94.73;100373.69;5053303;28;20209;-73
2022/05/27 01:02:41;;;;;;;10.93;10.23;;;;;;;14.94;95.38;100362.41;5053692;28;20672;-73
2022/05/27 01:05:10;;;;;;;10.13;9.43;;;;;;;15.05;95.09;100354.16;5053727;28;20206;-73
2022/05/27 01:07:39;;;;;;;11.37;10.47;;;;;;;15.04;94.60;100362.94;5053749;28;20237;-73
2022/05/27 01:10:09;;;;;;;10.07;9.37;;;;;;;15.09;94.62;100364.47;5053630;28;20202;-74
2022/05/27 01:13:02;;;;;;;11.70;11.00;;;;;;;14.87;95.56;100343.41;5053796;28;20277;-73
2022/05/27 01:15:38;;;;;;;11.50;10.70;;;;;;;14.83;96.89;100322.56;5053375;28;20303;-73
2022/05/27 01:20:18;;;;;;;11.23;10.43;;;;;;;14.93;96.58;100315.19;5053873;28;20238;-73
2022/05/27 01:21:18;;;;;;;11.13;10.17;;;;;;;14.86;96.66;100307.53;5053428;28;20228;-73
2022/05/27 01:24:10;;;;;;;11.20;10.23;;;;;;;14.99;96.44;100320.22;5053417;28;20699;-73
2022/05/27 01:26:50;;;;;;;10.53;9.60;;;;;;;14.97;95.98;100328.16;5053493;28;20194;-74
2022/05/27 01:29:43;;;;;;;10.87;9.90;;;;;;;15.01;95.63;100332.38;5053054;28;20228;-74
2022/05/27 01:32:15;;;;;;;9.13;8.43;;;;;;;14.75;96.50;100325.50;5053359;28;20295;-73
2022/05/27 01:34:53;;;;;;;9.40;8.50;;;;;;;14.78;96.11;100324.50;5053517;28;20226;-73
2022/05/27 01:37:25;;;;;;;7.77;7.17;;;;;;;14.94;95.22;100343.19;5053486;28;20560;-73
2022/05/27 01:40:00;;;;;;;7.50;6.90;;;;;;;14.99;94.31;100362.28;5052818;28;20216;-73
2022/05/27 01:42:39;;;;;;;6.60;6.20;;;;;;;15.07;94.17;100362.81;5052980;28;20262;-73
2022/05/27 01:45:11;;;;;;;7.10;6.43;;;;;;;14.88;94.57;100367.91;5053088;28;20205;-73
2022/05/27 01:47:43;;;;;;;6.33;5.83;;;;;;;15.02;94.36;100372.66;5052721;28;20210;-72
2022/05/27 01:50:14;;;;;;;7.03;6.47;;;;;;;14.95;94.57;100364.16;5053130;28;20190;-73
2022/05/27 01:52:45;;;;;;;5.77;5.33;;;;;;;14.88;94.46;100362.66;5053145;28;20683;-73
2022/05/27 01:55:17;;;;;;;5.50;5.10;;;;;;;14.94;94.91;100348.44;5053478;28;20194;-73
2022/05/27 01:57:49;;;;;;;5.53;5.03;;;;;;;14.77;96.07;100334.19;5053233;28;20210;-73
2022/05/27 02:00:21;;;;;;;4.97;4.67;;;;;;;14.80;96.17;100322.69;5052648;28;20189;-73
2022/05/27 02:02:54;;;;;;;4.67;4.27;;;;;;;14.41;98.33;100287.34;5052760;28;20217;-73
2022/05/27 02:05:26;;;;;;;3.97;3.77;;;;;;;14.46;99.31;100253.84;5053033;28;20224;-74
2022/05/27 02:07:57;;;;;;;4.20;3.93;;;;;;;14.55;99.36;100254.41;5053056;28;20228;-74
2022/05/27 02:10:28;;;;;;;4.40;4.20;;;;;;;14.31;100.00;100238.69;5052645;28;20736;-74
2022/05/27 02:13:00;;;;;;;4.53;4.23;;;;;;;14.40;100.00;100250.63;5053252;28;20942;-74
2022/05/27 02:15:31;;;;;;;4.70;4.30;;;;;;;14.23;100.00;100241.63;5052168;28;20205;-74
2022/05/27 02:18:04;;;;;;;5.17;4.80;;;;;;;14.06;100.00;100220.38;5053061;28;20190;-73
2022/05/27 02:20:35;;;;;;;4.80;4.50;;;;;;;14.17;100.00;100223.47;5052631;28;20193;-73
2022/05/27 02:23:06;;;;;;;4.97;4.67;;;;;;;14.03;100.00;100216.09;5052353;28;20630;-74
2022/05/27 02:25:36;;;;;;;5.23;4.83;;;;;;;14.20;100.00;100214.59;5052704;28;20266;-75
2022/05/27 02:28:09;;;;;;;5.60;5.30;;;;;;;14.07;100.00;100220.31;5051943;28;20780;-74
2022/05/27 02:30:39;;;;;;;5.10;4.80;;;;;;;14.10;100.00;100214.09;5052114;28;20252;-73
2022/05/27 02:35:59;;;;;;;5.30;5.00;;;;;;;14.26;100.00;100232.75;5053696;28;20769;-74
2022/05/27 02:38:27;;;;;;;4.37;4.07;;;;;;;14.02;100.00;100235.38;5053137;28;20247;-75
2022/05/27 02:41:03;;;;;;;4.70;4.40;;;;;;;14.22;100.00;100236.41;5051719;28;20205;-76
2022/05/27 02:43:44;;;;;;;4.27;3.73;;;;;;;14.13;100.00;100240.22;5052318;28;20626;-76
2022/05/27 02:46:23;;;;;;;3.63;3.33;;;;;;;14.02;100.00;100238.00;5051749;28;20246;-75
2022/05/27 02:49:01;;;;;;;4.27;3.97;;;;;;;14.05;100.00;100239.66;5051605;28;20232;-75
2022/05/27 02:51:37;;;;;;;4.23;3.93;;;;;;;14.07;100.00;100278.06;5051986;28;20206;-74
2022/05/27 02:54:10;;;;;;;5.37;4.87;;;;;;;13.72;100.00;100271.44;5052081;28;20223;-75
2022/05/27 02:56:43;;;;;;;5.33;4.83;;;;;;;13.37;100.00;100275.25;5051793;28;20213;-74
2022/05/27 02:59:11;;;;;;;1.70;1.60;;;;;;;13.05;100.00;100311.19;5050869;28;20189;-74
2022/05/27 03:01:38;;;;;;;1.70;1.60;;;;;;;12.95;100.00;100341.19;5052186;28;20215;-74
2022/05/27 03:04:07;;;;;;;1.40;1.30;;;;;;;12.80;100.00;100345.97;5052444;28;20243;-74
2022/05/27 03:06:46;;;;;;;1.17;1.00;;;;;;;12.73;100.00;100382.88;5051716;28;20266;-75
2022/05/27 03:09:19;;;;;;;1.53;1.33;;;;;;;12.63;100.00;100390.16;5051627;28;20220;-75
2022/05/27 03:11:54;;;;;;;1.07;1.00;;;;;;;12.50;100.00;100384.38;5051801;28;20190;-74
2022/05/27 03:14:35;;;;;;;1.40;1.30;;;;;;;12.49;100.00;100370.44;5051971;28;20276;-74
2022/05/27 03:17:13;;;;;;;1.57;1.43;;;;;;;12.58;100.00;100360.59;5051488;28;20212;-74
2022/05/27 03:19:56;;;;;;;1.30;1.20;;;;;;;12.30;100.00;100359.59;5051881;28;20243;-74
2022/05/27 03:22:39;;;;;;;1.33;1.23;;;;;;;12.27;100.00;100354.47;5052647;28;20330;-74
2022/05/27 03:25:17;;;;;;;1.10;1.10;;;;;;;12.18;100.00;100346.88;5052012;28;20192;-74
2022/05/27 03:27:49;;;;;;;1.17;1.13;;;;;;;12.20;100.00;100354.69;5052191;28;20199;-74
2022/05/27 03:30:19;;;;;;;1.20;0.93;;;;;;;12.26;100.00;100378.91;5050785;28;20212;-74
2022/05/27 03:32:55;;;;;;;1.33;1.20;;;;;;;12.21;100.00;100386.03;5051310;28;20661;-74
2022/05/27 03:35:28;;;;;;;1.27;1.17;;;;;;;12.31;100.00;100369.19;5051476;28;20260;-74
2022/05/27 03:38:04;;;;;;;1.70;1.00;;;;;;;12.29;100.00;100357.06;5051596;28;20212;-74
2022/05/27 03:40:35;;;;;;;2.40;1.23;;;;;;;12.27;100.00;100387.66;5050988;28;20218;-73
2022/05/27 03:43:02;;;;;;;1.67;1.20;;;;;;;12.26;100.00;100399.84;5051202;28;20593;-73
2022/05/27 03:45:29;;;;;;;1.23;1.10;;;;;;;12.26;100.00;100399.84;5051152;28;20207;-74
2022/05/27 03:47:55;;;;;;;2.10;1.20;;;;;;;12.23;100.00;100420.88;5051360;28;20211;-73
2022/05/27 03:50:25;;;;;;;1.60;1.10;;;;;;;12.12;99.83;100412.44;5051549;28;20622;-74
2022/05/27 03:52:55;;;;;;;2.73;1.67;;;;;;;12.19;100.00;100405.28;5051378;28;20222;-74
2022/05/27 03:55:23;;;;;;;1.90;1.50;;;;;;;12.21;100.00;100396.50;5051396;28;20215;-74
2022/05/27 03:57:49;;;;;;;1.40;1.30;;;;;;;12.31;100.00;100397.13;5047285;28;20256;-74
2022/05/27 04:00:17;;;;;;;1.63;1.43;;;;;;;12.20;99.63;100415.72;5044262;28;20278;-74
2022/05/27 04:02:45;;;;;;;2.00;1.83;;;;;;;12.21;99.50;100419.19;5042365;28;20669;-74
2022/05/27 04:05:15;;;;;;;2.23;1.23;;;;;;;12.26;99.17;100433.03;5042099;28;20242;-74
2022/05/27 04:07:43;;;;;;;1.23;1.17;;;;;;;12.18;98.92;100442.84;5041758;28;20287;-73
2022/05/27 04:10:11;;;;;;;1.40;1.30;;;;;;;12.34;98.70;100443.28;5042828;28;20230;-74
2022/05/27 04:12:37;;;;;;;3.10;1.50;;;;;;;12.37;98.13;100454.56;5045118;28;20258;-75
2022/05/27 04:15:06;;;;;;;1.40;1.30;;;;;;;12.46;97.70;100474.38;5043121;28;20222;-74
2022/05/27 04:17:32;;;;;;;1.40;1.30;;;;;;;12.55;97.58;100481.13;5044912;28;20621;-74
2022/05/27 04:19:59;;;;;;;1.20;1.20;;;;;;;12.66;97.18;100502.66;5044314;28;20725;-74
2022/05/27 04:22:26;;;;;;;1.40;1.30;;;;;;;12.52;96.56;100505.63;5042519;28;20278;-74
2022/05/27 04:24:54;;;;;;;1.30;1.20;;;;;;;12.45;96.80;100512.81;5044656;28;20286;-73
2022/05/27 04:27:22;;;;;;;1.80;1.63;;;;;;;12.38;97.26;100499.91;5045034;28;20251;-73
2022/05/27 04:29:50;;;;;;;1.60;1.50;;;;;;;12.45;98.00;100493.63;5048155;28;20654;-74
2022/05/27 04:32:17;;;;;;;2.67;1.50;;;;;;;12.35;98.23;100476.41;5046385;28;20206;-73
2022/05/27 04:34:44;;;;;;;3.20;2.27;;;;;;;12.31;99.05;100457.31;5042803;28;20236;-73
2022/05/27 04:37:11;;;;;;;2.17;2.07;;;;;;;12.39;99.25;100447.50;5044543;28;20205;-74
2022/05/27 04:39:39;;;;;;;2.30;2.20;;;;;;;12.37;99.73;100445.81;5044311;28;20199;-73
2022/05/27 04:42:08;;;;;;;3.70;3.23;;;;;;;12.40;99.54;100436.13;5042571;28;20705;-74
2022/05/27 04:44:34;;;;;;;3.13;2.93;;;;;;;12.53;99.99;100431.44;5044948;28;20231;-74
2022/05/27 04:47:01;;;;;;;4.30;2.90;;;;;;;12.56;100.00;100435.72;5048668;28;20259;-74
2022/05/27 04:52:13;;;;;;;3.17;2.87;;;;;;;12.46;99.96;100433.34;5045429;28;20705;-73
2022/05/27 04:54:39;;;;;;;3.90;3.50;;;;;;;12.46;100.00;100422.03;5043343;28;20308;-73
2022/05/27 04:57:07;;;;;;;6.07;3.70;;;;;;;12.52;100.00;100414.00;5044545;28;20203;-73
2022/05/27 04:59:36;;;;;;;4.00;3.70;;;;;;;12.64;100.00;100415.41;5042747;28;20342;-74
2022/05/27 05:02:03;;;;;;;4.33;3.80;;;;;;;12.62;100.00;100412.84;5042835;28;20257;-73
2022/05/27 05:04:29;;;;;;;4.80;3.67;;;;;;;12.56;100.00;100428.72;5044489;28;20227;-73
2022/05/27 05:07:01;;;;;;;3.90;3.50;;;;;;;12.54;100.00;100434.91;5044661;28;20622;-73
2022/05/27 05:09:27;;;;;;;4.13;3.77;;;;;;;12.64;100.00;100445.06;5044099;28;20294;-73
2022/05/27 05:11:54;;;;;;;4.37;4.07;;;;;;;12.68;100.00;100444.09;5043183;28;20208;-73
2022/05/27 05:14:22;;;;;;;5.77;3.87;;;;;;;12.70;100.00;100447.56;5044356;28;20221;-73
2022/05/27 05:16:49;;;;;;;4.90;4.50;;;;;;;12.78;100.00;100462.19;5048371;28;20199;-74
2022/05/27 05:19:15;;;;;;;3.93;3.53;;;;;;;12.70;99.28;100478.09;5044914;28;20207;-73
2022/05/27 05:21:42;;;;;;;3.97;3.67;;;;;;;12.75;99.47;100483.25;5041635;28;20212;-73
2022/05/27 05:24:08;;;;;;;5.73;3.83;;;;;;;12.77;98.89;100502.38;5044529;28;20231;-73
2022/05/27 05:26:34;;;;;;;3.50;3.20;;;;;;;12.72;98.37;100507.72;5042740;28;20665;-74
2022/05/27 05:29:01;;;;;;;4.30;3.77;;;;;;;12.73;97.85;100513.84;5042094;28;20240;-74
2022/05/27 05:31:29;;;;;;;4.80;4.20;;;;;;;12.78;98.07;100512.81;5044048;28;20202;-73
2022/05/27 05:33:59;;;;;;;4.10;3.40;;;;;;;12.74;97.20;100532.13;5042764;28;20232;-73
2022/05/27 05:36:26;;;;;;;4.70;3.60;;;;;;;12.74;97.32;100533.88;5041986;28;20281;-73
2022/05/27 05:38:54;;;;;;;3.40;3.10;;;;;;;12.73;97.07;100550.53;5045322;28;20619;-74
2022/05/27 05:41:32;;;;;;;3.27;3.00;;;;;;;12.76;96.42;100563.50;5041773;28;20205;-74
2022/05/27 05:43:59;;;;;;;4.13;3.73;;;;;;;12.77;96.94;100557.41;5043810;28;20224;-72
2022/05/27 05:46:26;;;;;;;7.00;3.50;;;;;;;12.70;96.39;100552.31;5047242;28;20339;-72
2022/05/27 05:48:54;;;;;;;5.00;3.33;;;;;;;12.76;96.35;100556.50;5043841;28;20275;-72
2022/05/27 05:51:21;;;;;;;3.73;3.27;;;;;;;12.85;96.47;100560.66;5041764;28;20602;-72
2022/05/27 05:53:48;;;;;;;3.30;2.90;;;;;;;12.85;96.22;100569.38;5046169;28;20282;-73
2022/05/27 05:56:14;;;;;;;5.50;3.37;;;;;;;13.02;94.49;100613.50;5043174;28;20208;-72
2022/05/27 05:58:41;;;;;;;3.97;3.60;;;;;;;13.08;93.82;100638.66;5042642;28;20732;-72
2022/05/27 06:01:08;;;;;;;4.63;2.90;;;;;;;13.08;92.64;100655.25;5040888;28;20209;-72
2022/05/27 06:03:34;;;;;;;3.60;3.30;;;;;;;13.09;92.62;100669.22;5042328;28;20718;-73
2022/05/27 06:06:02;;;;;;;7.27;3.57;;;;;;;13.17;92.24;100674.25;5051315;28;20203;-73
2022/05/27 06:08:28;;;;;;;6.40;3.07;;;;;;;13.16;92.24;100664.66;5052388;28;20204;-74
2022/05/27 06:10:55;;;;;;;5.23;3.63;;;;;;;13.26;92.90;100650.41;5052082;28;20261;-72
2022/05/27 06:13:21;;;;;;;5.17;3.63;;;;;;;13.30;92.59;100646.88;5052770;28;20226;-73
2022/05/27 06:15:48;;;;;;;6.40;4.27;;;;;;;13.41;93.45;100629.06;5051708;28;20204;-72
2022/05/27 06:18:15;;;;;;;4.33;3.73;;;;;;;13.53;93.10;100625.25;5052465;28;20257;-73
2022/05/27 06:20:42;;;;;;;5.53;4.13;;;;;;;13.41;92.83;100622.97;5051928;28;20259;-73
2022/05/27 06:23:10;;;;;;;5.27;3.70;;;;;;;13.38;90.40;100673.75;5052274;28;20229;-73
2022/05/27 06:25:37;;;;;;;4.30;3.90;;;;;;;13.46;91.31;100684.03;5052489;28;20220;-73
2022/05/27 06:36:17;;;;;;;3.30;2.87;;;;;;;13.61;88.98;100725.56;5052118;28;20268;-73
2022/05/27 06:38:46;;;;;;;3.33;2.80;;;;;;;13.56;88.02;100734.44;5052150;28;20209;-73
2022/05/27 06:41:12;;;;;;;3.60;2.50;;;;;;;13.72;88.99;100727.91;5051608;28;20220;-73
2022/05/27 06:43:39;;;;;;;2.83;2.50;;;;;;;13.79;88.16;100744.31;5051986;28;20225;-73
2022/05/27 06:46:05;;;;;;;3.90;2.50;;;;;;;13.83;87.07;100770.44;5051836;28;20220;-73
2022/05/27 06:48:32;;;;;;;3.57;3.23;;;;;;;14.00;87.84;100767.34;5051707;28;20204;-73
2022/05/27 06:51:04;;;;;;;4.63;2.30;;;;;;;13.95;85.27;100821.72;5051772;28;20223;-73
2022/05/27 06:53:31;;;;;;;2.90;2.20;;;;;;;13.95;84.09;100878.63;5051769;28;20233;-73
2022/05/27 06:55:59;;;;;;;3.50;2.50;;;;;;;13.92;83.76;100891.84;5051418;28;20218;-74
2022/05/27 06:58:25;;;;;;;3.30;2.00;;;;;;;13.85;84.62;100883.22;5049817;28;20208;-73
2022/05/27 07:00:52;;;;;;;4.83;2.50;;;;;;;13.99;84.91;100864.50;5050061;28;20207;-73
2022/05/27 07:03:19;;;;;;;3.57;2.80;;;;;;;14.02;83.59;100890.69;5050766;28;20711;-73
2022/05/27 07:05:45;;;;;;;1.87;1.77;;;;;;;13.97;81.27;100969.53;5051333;28;20670;-73
2022/05/27 07:08:14;;;;;;;3.93;2.13;;;;;;;13.87;81.65;100987.28;5051894;28;20618;-74
2022/05/27 07:10:40;;;;;;;3.47;2.67;;;;;;;13.95;81.98;100959.97;5051127;28;20232;-74
2022/05/27 07:13:08;;;;;;;3.03;1.63;;;;;;;13.76;77.16;101049.63;5051627;28;20290;-74
2022/05/27 07:15:35;;;;;;;3.97;1.83;;;;;;;13.75;78.29;101089.88;5050754;28;20201;-73
2022/05/27 07:18:04;;;;;;;3.33;1.93;;;;;;;13.82;77.39;101099.34;5048071;28;20209;-73
2022/05/27 07:20:30;;;;;;;5.43;1.93;;;;;;;13.93;76.73;101121.88;5036538;28;20201;-72
2022/05/27 07:22:57;;;;;;;3.30;2.07;;;;;;;13.95;77.02;101130.56;5031794;28;20224;-72
2022/05/27 07:25:23;;;;;;;3.07;2.17;;;;;;;13.94;78.71;101077.22;5031303;28;20660;-73
2022/05/27 07:27:50;;;;;;;3.53;2.30;;;;;;;13.98;80.40;101018.50;5031876;28;20205;-77
2022/05/27 07:30:18;;;;;;;3.33;2.30;;;;;;;13.94;78.21;101018.63;5032033;28;20230;-77
2022/05/27 07:32:45;;;;;;;3.87;1.87;;;;;;;13.83;77.24;101051.22;5032081;28;20240;-76
2022/05/27 07:35:12;;;;;;;3.90;2.10;;;;;;;13.89;75.08;101128.94;5032830;28;20716;-77
2022/05/27 07:37:39;;;;;;;3.97;2.10;;;;;;;14.03;78.12;101073.50;5033642;28;20206;-77
2022/05/27 07:40:07;;;;;;;3.20;2.10;;;;;;;13.99;77.94;101049.09;5032800;28;20293;-77
2022/05/27 07:42:33;;;;;;;5.07;2.33;;;;;;;14.04;77.41;101049.00;5033404;28;20716;-77
2022/05/27 07:45:00;;;;;;;3.67;2.40;;;;;;;14.22;78.32;101032.81;5041304;28;20290;-77
2022/05/27 07:47:27;;;;;;;5.00;2.00;;;;;;;14.27;75.61;101093.06;5056609;28;20253;-77
2022/05/27 07:49:54;;;;;;;3.27;1.90;;;;;;;14.33;74.71;101141.97;5056194;28;20705;-76
2022/05/27 07:52:20;;;;;;;3.17;2.20;;;;;;;14.62;74.77;101123.78;5056389;28;20266;-77
2022/05/27 07:54:47;;;;;;;5.07;2.20;;;;;;;14.42;74.02;101182.03;5056009;28;20239;-76
2022/05/27 07:57:24;;;;;;;4.13;1.67;;;;;;;14.42;71.15;101187.28;5056458;28;20215;-77
2022/05/27 07:59:51;;;;;;;4.63;1.80;;;;;;;14.47;68.95;101305.41;5056033;28;20316;-77
2022/05/27 08:02:17;;;;;;;4.67;2.23;;;;;;;14.41;70.48;101290.63;5056731;28;20212;-77
2022/05/27 08:04:45;;;;;;;3.13;1.87;;;;;;;14.28;71.62;101271.63;5055805;28;20283;-77
2022/05/27 08:07:11;;;;;;;4.23;2.20;;;;;;;14.22;71.84;101229.75;5056581;28;20216;-77
2022/05/27 08:09:38;;;;;;;6.83;2.53;;;;;;;14.33;70.17;101262.78;5055640;28;20224;-76
2022/05/27 08:12:06;;;;;;;2.07;1.63;;;;;;;14.58;71.03;101229.00;5056104;28;20222;-77
2022/05/27 08:14:32;;;;;;;2.50;1.50;;;;;;;14.50;66.93;101353.47;5055521;28;20232;-77
2022/05/27 08:16:59;;;;;;;5.47;2.00;;;;;;;14.64;67.06;101357.63;5055201;28;20205;-77
2022/05/27 08:19:25;;;;;;;3.83;2.00;;;;;;;14.68;67.14;101375.91;5056323;28;20260;-76
2022/05/27 08:21:53;;;;;;;2.60;1.53;;;;;;;14.75;68.11;101357.41;5056670;28;20239;-77
2022/05/27 08:24:19;;;;;;;4.97;2.60;;;;;;;14.61;67.21;101382.22;5055635;28;20679;-77
2022/05/27 08:26:47;;;;;;;2.87;1.67;;;;;;;14.59;64.56;101394.50;5055532;28;20218;-77
2022/05/27 08:29:14;;;;;;;4.63;1.90;;;;;;;14.81;64.30;101433.50;5054698;28;20278;-77
2022/05/27 08:31:41;;;;;;;3.13;1.87;;;;;;;15.01;64.48;101438.34;5055431;28;20770;-76
2022/05/27 08:39:46;;;;;;;4.90;2.17;;;;;;;15.07;62.85;101527.59;5056032;28;20577;-77
2022/05/27 08:42:24;;;;;;;4.37;1.83;;;;;;;14.92;64.92;101463.03;5055338;28;20278;-77
2022/05/27 08:44:58;;;;;;;3.30;2.03;;;;;;;14.95;63.96;101384.13;5055575;28;20232;-76
2022/05/27 08:47:30;;;;;;;5.43;2.40;;;;;;;14.77;65.40;101401.16;5055138;28;20203;-77
2022/05/27 08:50:07;;;;;;;3.20;1.97;;;;;;;14.81;65.64;101370.41;5055552;28;20212;-77
2022/05/27 08:52:42;;;;;;;4.90;2.37;;;;;;;14.64;65.58;101366.34;5055184;28;20212;-77
2022/05/27 09:00:38;;;;;;;4.83;2.20;;;;;;;15.09;63.30;101418.84;5031768;28;20282;-76
2022/05/27 09:03:09;;;;;;;3.73;1.97;;;;;;;15.22;61.27;101414.19;5054965;28;20236;-77
2022/05/27 09:05:39;;;;;;;4.67;1.97;;;;;;;15.29;63.06;101449.13;5055147;28;20267;-77
2022/05/27 09:08:13;;;;;;;7.90;3.10;;;;;;;15.52;60.23;101466.13;5055183;28;20223;-77
2022/05/27 09:10:50;;;;;;;5.07;1.83;;;;;;;15.73;60.92;101486.72;5054398;28;20222;-77
2022/05/27 09:13:22;;;;;;;5.57;2.20;;;;;;;15.25;58.94;101539.53;5054675;28;20291;-77
2022/05/27 09:15:55;;;;;;;4.10;2.10;;;;;;;15.02;61.63;101508.41;5053411;28;20680;-77
2022/05/27 09:18:29;;;;;;;6.20;2.93;;;;;;;15.06;61.42;101458.38;5056141;28;20229;-77
2022/05/27 09:21:07;;;;;;;3.37;2.10;;;;;;;14.91;62.81;101431.53;5055617;28;20638;-77
2022/05/27 09:23:50;;;;;;;5.63;2.60;;;;;;;14.69;61.49;101410.97;5055088;28;20233;-77
2022/05/27 09:26:21;;;;;;;5.57;2.30;;;;;;;14.97;63.50;101386.72;5054773;28;20228;-76
2022/05/27 09:28:57;;;;;;;4.83;2.13;;;;;;;15.30;66.01;101324.56;5054143;28;20209;-76
2022/05/27 09:31:32;;;;;;;5.40;2.17;;;;;;;15.38;62.87;101330.53;5053951;28;20779;-77
2022/05/27 09:33:59;;;;;;;4.23;2.37;;;;;;;15.48;61.18;101381.16;5054819;28;20286;-77
2022/05/27 09:36:34;;;;;;;5.87;2.40;;;;;;;15.63;62.05;101385.16;5055110;28;20292;-77
2022/05/27 09:39:05;;;;;;;4.83;2.20;;;;;;;15.39;61.37;101413.78;5053977;28;20319;-77
2022/05/27 09:41:39;;;;;;;5.37;2.77;;;;;;;15.49;62.99;101380.25;5054802;28;20210;-77
2022/05/27 09:44:24;;;;;;;4.73;1.93;;;;;;;15.58;63.47;101358.09;5054708;28;20232;-77
2022/05/27 09:46:51;;;;;;;4.83;2.53;;;;;;;15.36;61.93;101368.28;5047215;28;20195;-77
2022/05/27 09:49:18;;;;;;;5.23;2.43;;;;;;;15.20;63.25;101352.00;5053528;28;20220;-77
2022/05/27 09:51:44;;;;;;;5.77;2.40;;;;;;;15.05;64.45;101361.13;5054117;28;20228;-77
2022/05/27 09:54:27;;;;;;;5.60;2.80;;;;;;;14.72;71.27;101187.50;5056296;28;20272;-77
2022/05/27 09:57:02;;;;;;;4.70;3.23;;;;;;;14.07;75.54;100994.69;5057260;28;20212;-77
2022/05/27 09:59:36;;;;;;;4.00;2.80;;;;;;;13.56;79.30;100855.97;5056878;28;20573;-78
2022/05/27 10:02:19;;;;;;;4.47;2.97;;;;;;;13.55;80.93;100782.56;5057562;28;20214;-78
2022/05/27 10:04:54;;;;;;;5.67;3.33;;;;;;;13.29;83.47;100727.25;5059437;28;20215;-78
2022/05/27 10:07:40;;;;;;;7.07;2.73;;;;;;;13.04;84.09;100700.78;5057720;28;20207;-77
2022/05/27 10:10:26;;;;;;;3.87;2.83;;;;;;;13.21;85.42;100653.16;5055774;28;20198;-77
2022/05/27 10:12:53;;;;;;;4.97;3.47;;;;;;;13.54;85.13;100642.72;5056711;28;20212;-77
2022/05/27 10:15:40;;;;;;;5.63;3.50;;;;;;;13.61;85.10;100651.25;5056329;28;20220;-77
2022/05/27 10:18:19;;;;;;;4.37;3.60;;;;;;;13.87;83.95;100696.00;5049136;28;20209;-77
2022/05/27 10:20:50;;;;;;;5.33;3.00;;;;;;;14.05;81.54;100754.09;5054138;28;20232;-77
2022/05/27 10:23:24;;;;;;;4.93;2.80;;;;;;;14.13;79.53;100833.50;5055394;28;20232;-78
2022/05/27 10:25:52;;;;;;;4.97;2.57;;;;;;;14.41;80.96;100836.22;5054283;28;20208;-77
2022/05/27 10:28:29;;;;;;;9.73;2.67;;;;;;;14.60;76.67;100946.91;5054862;28;20725;-77
2022/05/27 10:30:58;;;;;;;3.30;2.00;;;;;;;14.58;75.33;100963.63;5053415;28;20291;-77
2022/05/27 10:33:38;;;;;;;3.93;2.60;;;;;;;14.66;74.02;101017.69;5053575;28;20707;-77
2022/05/27 10:36:25;;;;;;;4.60;2.30;;;;;;;14.97;74.29;101039.69;5054347;28;20267;-77
2022/05/27 10:39:02;;;;;;;5.73;2.43;;;;;;;15.01;72.55;101128.94;5053565;28;20230;-77
2022/05/27 10:41:41;;;;;;;5.90;3.07;;;;;;;15.28;72.03;101087.00;5053291;28;20227;-77
2022/05/27 10:44:16;;;;;;;4.77;2.30;;;;;;;15.27;71.63;101125.59;5053869;28;20673;-76
2022/05/27 10:46:52;;;;;;;7.60;2.73;;;;;;;15.39;68.83;101129.66;5054307;28;20211;-77
2022/05/27 10:49:43;;;;;;;4.83;2.40;;;;;;;15.62;67.10;101252.72;5054533;28;20250;-77
2022/05/27 10:52:24;;;;;;;3.90;2.17;;;;;;;15.83;69.18;101219.69;5054149;28;20352;-77
2022/05/27 10:55:00;;;;;;;6.20;2.70;;;;;;;15.96;68.10;101211.47;5053854;28;20232;-77
2022/05/27 11:03:40;;;;;;;4.37;2.20;;;;;;;16.18;64.77;101327.59;5053794;28;20256;-77
2022/05/27 11:06:36;;;;;;;4.40;2.10;;;;;;;16.22;62.68;101300.25;5053047;28;20650;-77
2022/05/27 11:09:22;;;;;;;3.70;1.87;;;;;;;16.60;60.55;101369.44;5053006;28;20205;-77
2022/05/27 11:11:58;;;;;;;3.03;1.63;;;;;;;16.39;57.35;101469.28;5052577;28;20251;-77
2022/05/27 11:17:35;;;;;;;5.77;2.00;;;;;;;16.68;55.93;101508.03;5053215;28;20292;-77
2022/05/27 11:20:24;;;;;;;4.00;1.90;;;;;;;16.45;57.01;101565.75;5052082;28;20193;-77
2022/05/27 11:23:03;;;;;;;5.87;1.83;;;;;;;16.14;59.48;101492.75;5052749;28;20307;-77
2022/05/27 11:25:53;;;;;;;6.17;1.90;;;;;;;16.18;60.31;101402.22;5052238;28;20663;-77
2022/05/27 11:28:43;;;;;;;5.40;1.90;;;;;;;16.31;59.42;101399.25;5052375;28;20246;-77
2022/05/27 11:31:25;;;;;;;3.73;2.07;;;;;;;16.48;58.08;101461.13;5052232;28;20222;-78
2022/05/27 11:33:57;;;;;;;6.53;1.77;;;;;;;17.22;54.21;101514.47;5052042;28;20295;-77
2022/05/27 11:36:36;;;;;;;2.50;1.67;;;;;;;18.02;50.29;101588.63;5052642;28;20602;-78
2022/05/27 11:39:36;;;;;;;4.83;2.00;;;;;;;18.43;52.24;101670.16;5052809;28;20583;-77
2022/05/27 11:42:12;;;;;;;5.23;2.10;;;;;;;17.86;51.69;101674.56;5051483;28;20246;-77
2022/05/27 11:44:44;;;;;;;4.93;2.17;;;;;;;17.48;51.16;101689.66;5052028;28;20265;-77
2022/05/27 11:47:37;;;;;;;4.07;1.87;;;;;;;18.31;50.41;101652.91;5051879;28;20231;-76
2022/05/27 11:50:19;;;;;;;2.87;1.30;;;;;;;18.15;48.86;101717.72;5051937;28;20216;-77
2022/05/27 11:53:04;;;;;;;6.10;1.90;;;;;;;18.91;48.21;101705.66;5052192;28;20598;-77
2022/05/27 11:55:51;;;;;;;5.60;1.73;;;;;;;18.39;47.96;101730.22;5053734;28;20874;-77
2022/05/27 11:58:22;;;;;;;3.60;1.70;;;;;;;18.26;48.52;101734.16;5052728;28;20209;-77
2022/05/27 12:00:55;;;;;;;7.60;1.57;;;;;;;18.42;46.58;101708.09;5051756;28;20214;-77
2022/05/27 12:03:33;;;;;;;3.23;2.03;;;;;;;18.50;45.92;101742.25;5052527;28;20235;-78
2022/05/27 12:06:05;;;;;;;3.13;1.60;;;;;;;18.56;44.55;101731.47;5053345;28;20279;-77
2022/05/27 12:08:38;;;;;;;3.50;1.43;;;;;;;18.24;45.38;101765.03;5054525;28;20215;-78
2022/05/27 12:11:11;;;;;;;3.60;1.87;;;;;;;17.51;47.63;101768.81;5055170;28;20244;-78
2022/05/27 12:13:41;;;;;;;10.73;2.37;;;;;;;16.75;48.21;101716.16;5053394;28;20223;-77
2022/05/27 12:16:13;;;;;;;3.97;1.30;;;;;;;16.27;49.85;101678.63;5053076;28;20212;-77